Time;durP1;ratioP1;P1;durP2;ratioP2;P2;SDS_P1;SDS_P2;PMS_P1;PMS_P2;Temp;Humidity;BMP_temperature;BMP_pressure;BME280_temperature;BME280_humidity;BME280_pressure;Samples;Min_cycle;Max_cycle;Signal;HPM_P1;HPM_P2
2021/07/17 00:02:12;;;;;;;13.13;6.33;;;;;;;;;;5096366;28;20253;-79
2021/07/17 00:04:38;;;;;;;9.60;6.50;;;;;;;;;;5077820;28;20171;-80
2021/07/17 00:07:04;;;;;;;12.93;7.80;;;;;;;;;;5077764;28;20210;-79
2021/07/17 00:09:30;;;;;;;10.77;7.47;;;;;;;;;;5095839;28;20179;-79
2021/07/17 00:11:56;;;;;;;10.57;6.57;;;;;;;;;;5096000;28;20218;-79
2021/07/17 00:14:22;;;;;;;13.90;6.67;;;;;;;;;;5095533;28;20182;-79
2021/07/17 00:16:48;;;;;;;11.90;7.80;;;;;;;;;;5095713;28;20172;-79
2021/07/17 00:19:15;;;;;;;14.07;6.83;;;;;;;;;;5095584;28;20258;-80
2021/07/17 00:21:41;;;;;;;9.97;7.50;;;;;;;;;;5076659;28;20256;-79
2021/07/17 00:24:07;;;;;;;13.10;7.70;;;;;;;;;;5077455;28;20171;-79
2021/07/17 00:26:33;;;;;;;11.23;7.07;;;;;;;;;;5095449;28;20160;-79
2021/07/17 00:28:59;;;;;;;11.00;7.13;;;;;;;;;;5095659;28;20167;-79
2021/07/17 00:31:25;;;;;;;13.87;7.20;;;;;;;;;;5077113;28;20180;-79
2021/07/17 00:33:51;;;;;;;9.87;7.40;;;;;;;;;;5095274;28;20225;-79
2021/07/17 00:36:17;;;;;;;10.97;7.17;;;;;;;;;;5076350;28;20507;-79
2021/07/17 00:38:44;;;;;;;9.80;6.57;;;;;;;;;;5095204;28;20175;-79
2021/07/17 00:41:10;;;;;;;14.07;7.37;;;;;;;;;;5076457;28;20195;-79
2021/07/17 00:43:36;;;;;;;8.83;6.80;;;;;;;;;;5076880;28;20175;-79
2021/07/17 00:46:02;;;;;;;11.03;7.70;;;;;;;;;;5094929;28;20183;-79
2021/07/17 00:48:28;;;;;;;14.33;7.50;;;;;;;;;;5076908;28;20290;-79
2021/07/17 00:50:54;;;;;;;15.00;7.73;;;;;;;;;;5075299;28;20172;-79
2021/07/17 00:53:20;;;;;;;11.87;8.60;;;;;;;;;;5095095;28;20171;-79
2021/07/17 00:55:49;;;;;;;11.83;7.30;;;;;;;;;;5076192;28;20216;-80
2021/07/17 00:58:17;;;;;;;10.50;6.53;;;;;;;;;;5075994;28;20172;-80
2021/07/17 01:00:43;;;;;;;10.23;7.33;;;;;;;;;;5076227;28;20172;-80
2021/07/17 01:03:10;;;;;;;14.40;8.20;;;;;;;;;;5076307;28;20360;-79
2021/07/17 01:05:39;;;;;;;10.63;6.97;;;;;;;;;;5076780;28;20179;-79
2021/07/17 01:08:05;;;;;;;12.63;7.00;;;;;;;;;;5094362;28;20219;-80
2021/07/17 01:10:31;;;;;;;13.43;6.90;;;;;;;;;;5094304;28;20175;-80
2021/07/17 01:12:57;;;;;;;11.70;7.17;;;;;;;;;;5093975;28;20316;-80
2021/07/17 01:15:23;;;;;;;13.47;7.23;;;;;;;;;;5075926;28;20214;-80
2021/07/17 01:17:50;;;;;;;11.47;7.13;;;;;;;;;;5076185;28;20172;-80
2021/07/17 01:20:20;;;;;;;10.37;6.83;;;;;;;;;;5075988;28;20653;-80
2021/07/17 01:22:47;;;;;;;9.67;6.17;;;;;;;;;;5074808;28;20300;-80
2021/07/17 01:25:42;;;;;;;11.17;7.00;;;;;;;;;;5075988;28;20167;-80
2021/07/17 01:28:08;;;;;;;10.27;6.57;;;;;;;;;;5067449;28;20191;-80
2021/07/17 01:30:35;;;;;;;11.90;7.00;;;;;;;;;;5075801;28;20168;-80
2021/07/17 01:33:02;;;;;;;8.53;5.90;;;;;;;;;;5094160;28;20176;-79
2021/07/17 01:35:28;;;;;;;13.33;7.60;;;;;;;;;;5075776;28;20188;-79
2021/07/17 01:37:54;;;;;;;12.43;6.90;;;;;;;;;;5075557;28;20633;-80
2021/07/17 01:40:21;;;;;;;9.23;6.10;;;;;;;;;;5094116;28;20173;-80
2021/07/17 01:42:48;;;;;;;12.30;6.73;;;;;;;;;;5093199;28;20194;-80
2021/07/17 01:45:22;;;;;;;11.33;5.97;;;;;;;;;;5075326;28;20516;-80
2021/07/17 01:47:48;;;;;;;11.13;6.63;;;;;;;;;;5093281;28;20172;-80
2021/07/17 01:50:14;;;;;;;14.20;6.93;;;;;;;;;;5075565;28;20213;-80
2021/07/17 01:52:40;;;;;;;12.27;7.63;;;;;;;;;;5092880;28;20651;-80
2021/07/17 01:55:07;;;;;;;8.73;6.70;;;;;;;;;;5093717;28;20212;-79
2021/07/17 01:57:33;;;;;;;12.77;7.33;;;;;;;;;;5093534;28;20173;-79
2021/07/17 01:59:59;;;;;;;12.13;7.57;;;;;;;;;;5075546;28;20184;-79
2021/07/17 02:02:25;;;;;;;8.93;7.53;;;;;;;;;;5073738;28;20207;-80
2021/07/17 02:04:51;;;;;;;14.00;7.30;;;;;;;;;;5075015;28;20171;-80
2021/07/17 02:07:17;;;;;;;12.63;7.20;;;;;;;;;;5093173;28;20249;-80
2021/07/17 02:09:43;;;;;;;13.67;7.80;;;;;;;;;;5083384;28;20790;-79
2021/07/17 02:12:09;;;;;;;11.97;7.63;;;;;;;;;;5071639;28;20172;-79
2021/07/17 02:14:39;;;;;;;12.13;7.80;;;;;;;;;;5072270;28;20173;-79
2021/07/17 02:17:06;;;;;;;13.67;6.83;;;;;;;;;;5071725;28;20180;-79
2021/07/17 02:19:32;;;;;;;12.37;7.80;;;;;;;;;;5072748;28;20576;-80
2021/07/17 02:21:58;;;;;;;15.90;7.63;;;;;;;;;;5070967;28;20207;-80
2021/07/17 02:24:24;;;;;;;12.10;7.33;;;;;;;;;;5072465;28;20169;-80
2021/07/17 02:26:50;;;;;;;9.93;6.97;;;;;;;;;;5070862;28;20176;-80
2021/07/17 02:29:17;;;;;;;12.90;7.23;;;;;;;;;;5070896;28;20547;-80
2021/07/17 02:31:43;;;;;;;9.20;7.53;;;;;;;;;;5071813;28;20180;-80
2021/07/17 02:34:10;;;;;;;12.43;8.20;;;;;;;;;;5071351;28;20188;-80
2021/07/17 02:36:36;;;;;;;10.23;7.80;;;;;;;;;;5070232;28;20181;-80
2021/07/17 02:39:03;;;;;;;14.83;7.83;;;;;;;;;;5071039;28;20185;-79
2021/07/17 02:41:29;;;;;;;9.00;7.93;;;;;;;;;;5070500;28;20602;-79
2021/07/17 02:43:55;;;;;;;13.50;8.17;;;;;;;;;;5070998;28;20181;-79
2021/07/17 02:46:21;;;;;;;11.93;7.73;;;;;;;;;;5070707;28;20623;-80
2021/07/17 02:48:48;;;;;;;11.67;7.63;;;;;;;;;;5071411;28;20673;-80
2021/07/17 02:51:14;;;;;;;11.77;7.57;;;;;;;;;;5071699;28;20176;-79
2021/07/17 02:53:40;;;;;;;11.63;7.33;;;;;;;;;;5070465;28;20173;-79
2021/07/17 02:56:06;;;;;;;9.73;7.77;;;;;;;;;;5070496;28;20199;-80
2021/07/17 02:58:32;;;;;;;13.53;7.83;;;;;;;;;;5072053;28;20180;-80
2021/07/17 03:00:58;;;;;;;9.07;7.23;;;;;;;;;;5092416;28;20176;-80
2021/07/17 03:03:24;;;;;;;11.10;7.47;;;;;;;;;;5074576;28;20279;-79
2021/07/17 03:05:51;;;;;;;13.53;7.50;;;;;;;;;;5092056;28;20165;-80
2021/07/17 03:08:22;;;;;;;11.60;7.73;;;;;;;;;;5073931;28;20203;-79
2021/07/17 03:10:49;;;;;;;10.90;7.33;;;;;;;;;;5073986;28;20183;-79
2021/07/17 03:13:15;;;;;;;9.57;7.63;;;;;;;;;;5074165;28;20180;-80
2021/07/17 03:15:41;;;;;;;15.80;8.40;;;;;;;;;;5073615;28;20191;-80
2021/07/17 03:18:08;;;;;;;13.57;7.17;;;;;;;;;;5091792;28;20204;-80
2021/07/17 03:20:34;;;;;;;12.73;7.80;;;;;;;;;;5073807;28;20181;-80
2021/07/17 03:23:00;;;;;;;12.07;7.43;;;;;;;;;;5091468;28;20203;-80
2021/07/17 03:25:26;;;;;;;11.47;7.67;;;;;;;;;;5091851;28;20179;-80
2021/07/17 03:27:52;;;;;;;12.27;7.80;;;;;;;;;;5092070;28;20180;-80
2021/07/17 03:30:18;;;;;;;13.33;7.90;;;;;;;;;;5073857;28;20172;-80
2021/07/17 03:32:44;;;;;;;11.23;8.47;;;;;;;;;;5073202;28;20187;-80
2021/07/17 03:35:11;;;;;;;11.70;8.57;;;;;;;;;;5092087;28;20258;-80
2021/07/17 03:37:37;;;;;;;13.17;8.73;;;;;;;;;;5073313;28;20179;-79
2021/07/17 03:40:04;;;;;;;16.20;9.43;;;;;;;;;;5091734;28;20420;-79
2021/07/17 03:42:30;;;;;;;12.83;8.47;;;;;;;;;;5073422;28;20211;-80
2021/07/17 03:44:56;;;;;;;10.97;7.23;;;;;;;;;;5073855;28;20176;-79
2021/07/17 03:47:22;;;;;;;13.33;7.67;;;;;;;;;;5073999;28;20275;-79
2021/07/17 03:49:48;;;;;;;10.70;7.50;;;;;;;;;;5073366;28;20196;-80
2021/07/17 03:52:14;;;;;;;8.63;6.37;;;;;;;;;;5073297;28;20682;-80
2021/07/17 03:54:41;;;;;;;9.67;6.23;;;;;;;;;;5091635;28;20552;-80
2021/07/17 03:57:07;;;;;;;9.27;6.90;;;;;;;;;;5073717;28;20306;-81
2021/07/17 03:59:33;;;;;;;10.37;7.37;;;;;;;;;;5091792;28;20183;-80
2021/07/17 04:01:59;;;;;;;14.23;7.90;;;;;;;;;;5073871;28;20271;-80
2021/07/17 04:04:25;;;;;;;11.87;7.27;;;;;;;;;;5073247;28;20546;-80
2021/07/17 04:06:51;;;;;;;11.93;8.23;;;;;;;;;;5072748;28;20199;-80
2021/07/17 04:09:17;;;;;;;8.13;6.57;;;;;;;;;;5073192;28;20172;-80
2021/07/17 04:11:43;;;;;;;11.03;7.20;;;;;;;;;;5073215;28;20176;-80
2021/07/17 04:14:10;;;;;;;11.97;7.07;;;;;;;;;;5073293;28;20188;-79
2021/07/17 04:16:36;;;;;;;9.40;6.70;;;;;;;;;;5091618;28;20691;-80
2021/07/17 04:19:02;;;;;;;7.23;5.87;;;;;;;;;;5073070;28;20175;-80
2021/07/17 04:21:28;;;;;;;10.07;6.43;;;;;;;;;;5072475;28;20694;-79
2021/07/17 04:23:54;;;;;;;10.33;6.13;;;;;;;;;;5073553;28;20172;-80
2021/07/17 04:26:20;;;;;;;11.90;7.37;;;;;;;;;;5074290;28;20233;-80
2021/07/17 04:28:46;;;;;;;11.33;6.93;;;;;;;;;;5076990;28;20218;-80
2021/07/17 04:31:12;;;;;;;13.93;7.50;;;;;;;;;;5095078;28;20179;-80
2021/07/17 04:33:38;;;;;;;10.60;7.23;;;;;;;;;;5076176;28;20180;-79
2021/07/17 04:36:05;;;;;;;10.53;7.63;;;;;;;;;;5076725;28;20636;-80
2021/07/17 04:38:31;;;;;;;12.43;7.50;;;;;;;;;;5076463;28;20178;-79
2021/07/17 04:40:57;;;;;;;14.37;8.03;;;;;;;;;;5094650;28;20222;-80
2021/07/17 04:43:23;;;;;;;12.13;8.37;;;;;;;;;;5094579;28;20175;-79
2021/07/17 04:45:49;;;;;;;13.90;7.53;;;;;;;;;;5094893;28;20172;-79
2021/07/17 04:48:15;;;;;;;9.97;7.10;;;;;;;;;;5094834;28;20580;-80
2021/07/17 04:50:41;;;;;;;12.10;8.47;;;;;;;;;;5076481;28;20198;-79
2021/07/17 04:53:07;;;;;;;10.37;7.23;;;;;;;;;;5076413;28;20624;-79
2021/07/17 04:55:33;;;;;;;9.97;6.47;;;;;;;;;;5094612;28;20215;-79
2021/07/17 04:57:59;;;;;;;10.90;7.70;;;;;;;;;;5076623;28;20203;-79
2021/07/17 05:00:25;;;;;;;13.47;7.47;;;;;;;;;;5076838;28;20180;-79
2021/07/17 05:02:53;;;;;;;11.87;7.87;;;;;;;;;;5094224;28;20566;-79
2021/07/17 05:05:20;;;;;;;10.13;7.73;;;;;;;;;;5076493;28;20180;-79
2021/07/17 05:07:46;;;;;;;10.63;6.67;;;;;;;;;;5093832;28;20219;-79
2021/07/17 05:10:13;;;;;;;11.00;7.73;;;;;;;;;;5076283;28;20197;-79
2021/07/17 05:12:39;;;;;;;13.43;8.13;;;;;;;;;;5094501;28;20179;-80
2021/07/17 05:15:07;;;;;;;12.63;7.57;;;;;;;;;;5094422;28;20172;-80
2021/07/17 05:17:33;;;;;;;11.87;7.73;;;;;;;;;;5094078;28;20176;-80
2021/07/17 05:19:59;;;;;;;15.30;7.03;;;;;;;;;;5094285;28;20183;-79
2021/07/17 05:22:25;;;;;;;11.40;7.57;;;;;;;;;;5075846;28;20200;-79
2021/07/17 05:24:52;;;;;;;11.10;7.07;;;;;;;;;;5094621;28;20176;-79
2021/07/17 05:27:18;;;;;;;10.77;7.30;;;;;;;;;;5094504;28;20175;-79
2021/07/17 05:29:44;;;;;;;12.87;7.60;;;;;;;;;;5093966;28;20176;-79
2021/07/17 05:32:10;;;;;;;10.87;8.00;;;;;;;;;;5075412;28;20638;-79
2021/07/17 05:34:38;;;;;;;14.63;8.03;;;;;;;;;;5075765;28;20252;-79
2021/07/17 05:37:04;;;;;;;15.07;8.03;;;;;;;;;;5075265;28;20627;-79
2021/07/17 05:39:30;;;;;;;12.17;7.73;;;;;;;;;;5075516;28;20230;-79
2021/07/17 05:41:56;;;;;;;12.80;7.37;;;;;;;;;;5093244;28;20205;-80
2021/07/17 05:44:22;;;;;;;9.17;7.30;;;;;;;;;;5075363;28;20539;-80
2021/07/17 05:46:48;;;;;;;14.90;8.33;;;;;;;;;;5093513;28;20172;-79
2021/07/17 05:49:14;;;;;;;15.50;8.17;;;;;;;;;;5075378;28;20683;-80
2021/07/17 05:51:40;;;;;;;13.57;7.80;;;;;;;;;;5093005;28;20180;-80
2021/07/17 05:54:06;;;;;;;10.53;7.40;;;;;;;;;;5092835;28;20215;-79
2021/07/17 05:56:32;;;;;;;11.23;7.37;;;;;;;;;;5093380;28;20183;-79
2021/07/17 05:58:58;;;;;;;13.40;8.20;;;;;;;;;;5075419;28;20179;-80
2021/07/17 06:01:24;;;;;;;10.80;7.73;;;;;;;;;;5074640;28;20199;-79
2021/07/17 06:03:50;;;;;;;12.43;8.03;;;;;;;;;;5075048;28;20657;-80
2021/07/17 06:06:16;;;;;;;11.87;8.33;;;;;;;;;;5074658;28;20291;-79
2021/07/17 06:08:42;;;;;;;13.70;7.90;;;;;;;;;;5093100;28;20630;-79
2021/07/17 06:11:08;;;;;;;11.87;8.70;;;;;;;;;;5074795;28;20270;-79
2021/07/17 06:13:34;;;;;;;12.57;8.50;;;;;;;;;;5075174;28;20590;-79
2021/07/17 06:16:01;;;;;;;12.07;8.47;;;;;;;;;;5094224;28;20168;-79
2021/07/17 06:18:27;;;;;;;12.87;8.00;;;;;;;;;;5093901;28;20176;-80
2021/07/17 06:20:53;;;;;;;14.43;7.97;;;;;;;;;;5075127;28;20186;-80
2021/07/17 06:23:19;;;;;;;12.67;7.67;;;;;;;;;;5094072;28;20187;-79
2021/07/17 06:25:45;;;;;;;10.97;7.70;;;;;;;;;;5075594;28;20525;-80
2021/07/17 06:28:11;;;;;;;11.87;7.10;;;;;;;;;;5093271;28;20539;-79
2021/07/17 06:30:37;;;;;;;10.17;7.47;;;;;;;;;;5075114;28;20167;-80
2021/07/17 06:33:03;;;;;;;10.70;7.07;;;;;;;;;;5075299;28;20183;-80
2021/07/17 06:35:29;;;;;;;11.70;7.40;;;;;;;;;;5093429;28;20178;-80
2021/07/17 06:37:55;;;;;;;10.67;7.07;;;;;;;;;;5074611;28;20180;-80
2021/07/17 06:40:21;;;;;;;9.47;7.13;;;;;;;;;;5074825;28;20183;-80
2021/07/17 06:42:48;;;;;;;13.67;7.63;;;;;;;;;;5092992;28;20688;-79
2021/07/17 06:45:15;;;;;;;8.33;7.03;;;;;;;;;;5074744;28;20264;-79
2021/07/17 06:47:41;;;;;;;9.77;7.00;;;;;;;;;;5092610;28;20223;-80
2021/07/17 06:50:08;;;;;;;10.63;7.23;;;;;;;;;;5092201;28;20172;-80
2021/07/17 06:52:34;;;;;;;13.03;7.23;;;;;;;;;;5073559;28;20172;-79
2021/07/17 06:55:00;;;;;;;13.40;8.23;;;;;;;;;;5073932;28;20699;-80
2021/07/17 06:57:26;;;;;;;11.07;7.80;;;;;;;;;;5092539;28;20627;-80
2021/07/17 06:59:52;;;;;;;11.87;6.93;;;;;;;;;;5074348;28;20539;-80
2021/07/17 07:02:18;;;;;;;10.90;6.97;;;;;;;;;;5074031;28;20541;-80
2021/07/17 07:04:44;;;;;;;16.03;8.20;;;;;;;;;;5092110;28;20167;-80
2021/07/17 07:07:10;;;;;;;8.97;7.60;;;;;;;;;;5073868;28;20196;-80
2021/07/17 07:09:36;;;;;;;13.50;7.33;;;;;;;;;;5075834;28;20179;-80
2021/07/17 07:12:03;;;;;;;15.50;8.03;;;;;;;;;;5075098;28;20176;-79
2021/07/17 07:14:28;;;;;;;11.37;7.20;;;;;;;;;;5073926;28;20171;-79
2021/07/17 07:16:55;;;;;;;13.63;8.67;;;;;;;;;;5092210;28;20178;-79
2021/07/17 07:19:21;;;;;;;12.00;7.50;;;;;;;;;;5092004;28;20171;-79
2021/07/17 07:21:49;;;;;;;13.00;7.60;;;;;;;;;;5091520;28;20238;-79
2021/07/17 07:24:15;;;;;;;12.27;7.97;;;;;;;;;;5092223;28;20167;-79
2021/07/17 07:26:41;;;;;;;10.37;7.27;;;;;;;;;;5073934;28;20175;-79
2021/07/17 07:29:07;;;;;;;13.63;8.57;;;;;;;;;;5092060;28;20172;-79
2021/07/17 07:31:33;;;;;;;10.60;7.50;;;;;;;;;;5091626;28;20175;-79
2021/07/17 07:33:59;;;;;;;11.20;7.07;;;;;;;;;;5092730;28;20182;-79
2021/07/17 07:36:25;;;;;;;12.73;8.07;;;;;;;;;;5073588;28;20180;-80
2021/07/17 07:38:52;;;;;;;11.73;7.97;;;;;;;;;;5073754;28;20740;-79
2021/07/17 07:41:18;;;;;;;12.43;7.67;;;;;;;;;;5073654;28;20171;-79
2021/07/17 07:43:47;;;;;;;12.77;7.90;;;;;;;;;;5091657;28;20165;-79
2021/07/17 07:46:16;;;;;;;10.90;7.57;;;;;;;;;;5074104;28;20180;-79
2021/07/17 07:48:42;;;;;;;11.53;7.73;;;;;;;;;;5092204;28;20297;-79
2021/07/17 07:51:09;;;;;;;12.40;7.23;;;;;;;;;;5073506;28;20183;-79
2021/07/17 07:53:35;;;;;;;17.37;8.03;;;;;;;;;;5093194;28;20659;-81
2021/07/17 07:56:02;;;;;;;12.93;8.20;;;;;;;;;;5074147;28;20258;-78
2021/07/17 07:58:28;;;;;;;12.73;8.23;;;;;;;;;;5092289;28;20325;-79
2021/07/17 08:00:55;;;;;;;13.47;8.23;;;;;;;;;;5075987;28;20183;-78
2021/07/17 08:03:21;;;;;;;13.50;8.40;;;;;;;;;;5095817;28;20583;-79
2021/07/17 08:05:47;;;;;;;12.33;7.57;;;;;;;;;;5077615;28;20180;-78
2021/07/17 08:08:14;;;;;;;17.10;7.87;;;;;;;;;;5077876;28;20206;-79
2021/07/17 08:10:40;;;;;;;11.97;7.20;;;;;;;;;;5077394;28;20180;-79
2021/07/17 08:13:06;;;;;;;12.63;7.40;;;;;;;;;;5077345;28;20171;-79
2021/07/17 08:15:32;;;;;;;10.97;7.60;;;;;;;;;;5095625;28;20630;-79
2021/07/17 08:17:58;;;;;;;10.23;6.87;;;;;;;;;;5077210;28;20543;-79
2021/07/17 08:20:25;;;;;;;12.67;7.97;;;;;;;;;;5095513;28;20638;-79
2021/07/17 08:22:51;;;;;;;11.93;7.40;;;;;;;;;;5076748;28;20675;-79
2021/07/17 08:25:17;;;;;;;11.70;7.30;;;;;;;;;;5095459;28;20542;-79
2021/07/17 08:27:43;;;;;;;12.70;7.77;;;;;;;;;;5095324;28;20160;-79
2021/07/17 08:30:11;;;;;;;9.77;7.33;;;;;;;;;;5095479;28;20175;-79
2021/07/17 08:32:37;;;;;;;10.60;7.33;;;;;;;;;;5093410;28;20237;-76
2021/07/17 08:35:03;;;;;;;12.03;7.00;;;;;;;;;;5093327;28;20632;-76
2021/07/17 08:37:29;;;;;;;12.57;7.37;;;;;;;;;;5092979;28;20212;-76
2021/07/17 08:39:55;;;;;;;10.50;6.47;;;;;;;;;;5075051;28;20570;-76
2021/07/17 08:42:24;;;;;;;10.50;7.03;;;;;;;;;;5074912;28;20306;-77
2021/07/17 08:44:53;;;;;;;10.45;6.82;;;;;;;;;;5092858;28;20415;-76
2021/07/17 08:47:20;;;;;;;12.10;8.37;;;;;;;;;;5092823;28;20211;-76
2021/07/17 08:49:47;;;;;;;9.37;7.37;;;;;;;;;;5074666;28;20181;-76
2021/07/17 08:52:13;;;;;;;11.73;6.30;;;;;;;;;;5074174;28;20544;-76
2021/07/17 08:54:42;;;;;;;9.50;6.70;;;;;;;;;;5072221;28;20224;-80
2021/07/17 08:57:12;;;;;;;11.73;6.60;;;;;;;;;;5076045;28;20185;-80
2021/07/17 08:59:38;;;;;;;13.53;6.70;;;;;;;;;;5057728;28;20662;-80
2021/07/17 09:02:05;;;;;;;12.53;6.43;;;;;;;;;;5075592;28;20559;-82
2021/07/17 09:04:31;;;;;;;11.50;6.80;;;;;;;;;;5058315;28;20652;-80
2021/07/17 09:06:57;;;;;;;8.50;6.17;;;;;;;;;;5058267;28;20200;-81
2021/07/17 09:09:30;;;;;;;10.83;5.70;;;;;;;;;;5058572;28;20180;-81
2021/07/17 09:11:56;;;;;;;10.03;5.87;;;;;;;;;;5091319;28;20216;-81
2021/07/17 09:14:38;;;;;;;13.10;6.47;;;;;;;;;;5057712;28;20620;-81
2021/07/17 09:17:05;;;;;;;10.90;5.93;;;;;;;;;;5091004;28;20177;-81
2021/07/17 09:19:32;;;;;;;9.60;6.20;;;;;;;;;;5057538;28;20178;-83
2021/07/17 09:21:58;;;;;;;11.23;5.90;;;;;;;;;;5056633;28;20259;-79
2021/07/17 09:24:24;;;;;;;10.50;6.33;;;;;;;;;;5056990;28;20171;-78
2021/07/17 09:26:52;;;;;;;13.33;5.77;;;;;;;;;;5057104;28;20174;-79
2021/07/17 09:29:18;;;;;;;9.13;6.10;;;;;;;;;;5056615;28;20619;-79
2021/07/17 09:31:54;;;;;;;9.27;5.30;;;;;;;;;;5055240;28;20185;-79
2021/07/17 09:34:24;;;;;;;11.13;5.47;;;;;;;;;;5067260;28;20699;-79
2021/07/17 09:36:57;;;;;;;10.73;5.73;;;;;;;;;;5109840;28;20250;-79
2021/07/17 09:39:27;;;;;;;13.10;5.87;;;;;;;;;;5110108;28;20191;-79
2021/07/17 09:41:54;;;;;;;8.77;5.93;;;;;;;;;;5108997;28;20851;-79
2021/07/17 09:44:24;;;;;;;12.10;5.53;;;;;;;;;;5094873;28;20327;-78
2021/07/17 09:46:50;;;;;;;9.93;5.90;;;;;;;;;;5094661;28;20171;-79
2021/07/17 09:49:17;;;;;;;9.00;5.60;;;;;;;;;;5094538;28;20217;-78
2021/07/17 09:51:44;;;;;;;10.57;6.50;;;;;;;;;;5094155;28;20179;-79
2021/07/17 09:54:10;;;;;;;10.47;5.57;;;;;;;;;;5089992;28;20614;-79
2021/07/17 09:56:37;;;;;;;10.87;5.67;;;;;;;;;;5055985;28;20166;-78
2021/07/17 09:59:04;;;;;;;10.20;5.13;;;;;;;;;;5057678;28;20193;-79
2021/07/17 10:01:38;;;;;;;12.47;5.60;;;;;;;;;;5075105;28;20208;-79
2021/07/17 10:04:11;;;;;;;12.47;5.93;;;;;;;;;;5056896;28;20181;-79
2021/07/17 10:06:57;;;;;;;10.63;5.73;;;;;;;;;;5073979;28;20700;-79
2021/07/17 10:09:24;;;;;;;11.97;5.57;;;;;;;;;;5056508;28;20197;-78
2021/07/17 10:11:54;;;;;;;10.10;6.33;;;;;;;;;;5055972;28;20184;-79
2021/07/17 10:14:21;;;;;;;9.60;5.67;;;;;;;;;;5056531;28;20176;-79
2021/07/17 10:16:49;;;;;;;13.17;7.40;;;;;;;;;;5055658;28;20646;-79
2021/07/17 10:19:16;;;;;;;9.73;5.50;;;;;;;;;;5074341;28;20173;-79
2021/07/17 10:21:42;;;;;;;11.80;5.67;;;;;;;;;;5055931;28;20227;-81
2021/07/17 10:24:08;;;;;;;12.83;5.00;;;;;;;;;;5057592;28;20635;-82
2021/07/17 10:26:34;;;;;;;9.03;4.90;;;;;;;;;;5058149;28;20615;-81
2021/07/17 10:29:04;;;;;;;11.07;5.23;;;;;;;;;;5058511;28;20172;-81
2021/07/17 10:31:30;;;;;;;10.57;4.67;;;;;;;;;;5066613;28;20268;-80
2021/07/17 10:33:56;;;;;;;8.77;5.33;;;;;;;;;;5070915;28;20615;-80
2021/07/17 10:36:23;;;;;;;7.80;4.43;;;;;;;;;;5088764;28;20180;-80
2021/07/17 10:38:51;;;;;;;7.07;4.40;;;;;;;;;;5070087;28;20655;-78
2021/07/17 10:41:19;;;;;;;12.50;4.33;;;;;;;;;;5066560;28;20177;-80
2021/07/17 10:43:55;;;;;;;9.13;4.70;;;;;;;;;;5072307;28;20175;-81
2021/07/17 10:46:28;;;;;;;8.77;4.10;;;;;;;;;;5084929;28;20168;-81
2021/07/17 10:48:55;;;;;;;7.60;4.23;;;;;;;;;;5071103;28;20176;-81
2021/07/17 10:51:25;;;;;;;6.53;4.33;;;;;;;;;;5069068;28;20180;-79
2021/07/17 10:53:54;;;;;;;9.90;4.40;;;;;;;;;;5065892;28;20172;-79
2021/07/17 10:56:29;;;;;;;7.77;4.43;;;;;;;;;;5064777;28;20206;-79
2021/07/17 10:59:10;;;;;;;9.10;4.87;;;;;;;;;;5063640;28;20180;-78
2021/07/17 11:01:55;;;;;;;8.87;4.40;;;;;;;;;;5062616;28;20208;-82
2021/07/17 11:04:47;;;;;;;9.87;4.57;;;;;;;;;;5080725;28;20168;-81
2021/07/17 11:07:16;;;;;;;9.23;5.10;;;;;;;;;;5058579;28;20268;-81
2021/07/17 11:09:55;;;;;;;8.17;5.13;;;;;;;;;;5079940;28;20169;-84
2021/07/17 11:12:25;;;;;;;6.13;3.80;;;;;;;;;;5058701;28;20184;-78
2021/07/17 11:14:51;;;;;;;6.97;4.27;;;;;;;;;;5056747;28;20195;-78
2021/07/17 11:17:36;;;;;;;8.40;4.03;;;;;;;;;;5056453;28;20184;-78
2021/07/17 11:20:21;;;;;;;8.57;5.47;;;;;;;;;;5055748;28;20213;-78
2021/07/17 11:22:48;;;;;;;9.00;4.13;;;;;;;;;;5058473;28;20196;-78
2021/07/17 11:25:17;;;;;;;5.80;3.90;;;;;;;;;;5076888;28;20199;-79
2021/07/17 11:27:44;;;;;;;6.33;4.47;;;;;;;;;;5058384;28;20172;-79
2021/07/17 11:30:16;;;;;;;7.00;3.90;;;;;;;;;;5058875;28;20180;-79
2021/07/17 11:33:00;;;;;;;9.40;4.10;;;;;;;;;;5075424;28;20169;-79
2021/07/17 11:35:27;;;;;;;6.73;3.80;;;;;;;;;;5059311;28;20176;-79
2021/07/17 11:37:53;;;;;;;6.87;3.70;;;;;;;;;;5080136;28;20172;-79
2021/07/17 11:40:19;;;;;;;7.57;3.90;;;;;;;;;;5062360;28;20192;-79
2021/07/17 11:42:46;;;;;;;4.57;3.23;;;;;;;;;;5079799;28;20196;-79
2021/07/17 11:45:12;;;;;;;7.50;3.67;;;;;;;;;;5081370;28;20219;-79
2021/07/17 11:47:38;;;;;;;6.43;3.33;;;;;;;;;;5080547;28;20176;-79
2021/07/17 11:50:05;;;;;;;7.27;3.73;;;;;;;;;;5062861;28;20180;-79
2021/07/17 11:52:33;;;;;;;6.20;3.70;;;;;;;;;;5064692;28;20641;-79
2021/07/17 11:55:04;;;;;;;7.30;3.10;;;;;;;;;;5083754;28;20222;-80
2021/07/17 11:57:34;;;;;;;7.33;3.50;;;;;;;;;;5064005;28;20260;-81
2021/07/17 12:00:00;;;;;;;8.43;4.07;;;;;;;;;;5064204;28;20186;-81
2021/07/17 12:02:28;;;;;;;5.43;3.53;;;;;;;;;;5080037;28;20314;-80
2021/07/17 12:04:55;;;;;;;5.03;3.20;;;;;;;;;;5062843;28;20179;-80
2021/07/17 12:07:25;;;;;;;7.40;3.83;;;;;;;;;;5061966;28;20205;-81
2021/07/17 12:09:53;;;;;;;5.53;3.20;;;;;;;;;;5064019;28;20186;-81
2021/07/17 12:12:33;;;;;;;3.60;2.87;;;;;;;;;;5064049;28;20216;-81
2021/07/17 12:15:00;;;;;;;4.53;3.13;;;;;;;;;;5081520;28;20696;-81
2021/07/17 12:17:27;;;;;;;4.20;2.97;;;;;;;;;;5080581;28;20180;-79
2021/07/17 12:20:00;;;;;;;5.10;2.67;;;;;;;;;;5061665;28;20430;-81
2021/07/17 12:22:26;;;;;;;4.80;2.23;;;;;;;;;;5061730;28;20210;-78
2021/07/17 12:25:06;;;;;;;5.20;3.07;;;;;;;;;;5062545;28;20513;-82
2021/07/17 12:27:32;;;;;;;7.37;3.17;;;;;;;;;;5080446;28;20175;-81
2021/07/17 12:29:58;;;;;;;5.33;3.13;;;;;;;;;;5061941;28;20200;-81
2021/07/17 12:32:24;;;;;;;4.60;2.67;;;;;;;;;;5079419;28;20176;-81
2021/07/17 12:34:54;;;;;;;5.73;2.40;;;;;;;;;;5078959;28;20176;-81
2021/07/17 12:37:28;;;;;;;4.90;2.70;;;;;;;;;;5077331;28;20293;-80
2021/07/17 12:40:10;;;;;;;5.40;2.30;;;;;;;;;;5077601;28;20186;-81
2021/07/17 12:42:43;;;;;;;2.80;2.53;;;;;;;;;;5077722;28;20655;-80
2021/07/17 12:45:14;;;;;;;5.70;3.20;;;;;;;;;;5060064;28;20526;-81
2021/07/17 12:47:46;;;;;;;6.17;2.87;;;;;;;;;;5078187;28;20690;-81
2021/07/17 12:50:12;;;;;;;5.80;2.57;;;;;;;;;;5061261;28;20177;-81
2021/07/17 12:52:40;;;;;;;4.97;2.57;;;;;;;;;;5059506;28;20185;-81
2021/07/17 12:55:07;;;;;;;4.70;2.57;;;;;;;;;;5059316;28;20218;-81
2021/07/17 12:57:34;;;;;;;5.33;3.50;;;;;;;;;;5058970;28;20220;-80
2021/07/17 13:00:00;;;;;;;6.67;2.50;;;;;;;;;;5059476;28;20194;-80
2021/07/17 13:02:28;;;;;;;3.93;2.50;;;;;;;;;;5077590;28;20248;-81
2021/07/17 13:04:54;;;;;;;9.17;2.50;;;;;;;;;;5059146;28;20622;-81
2021/07/17 13:07:31;;;;;;;3.63;2.13;;;;;;;;;;5058482;28;20590;-80
2021/07/17 13:09:57;;;;;;;5.40;2.30;;;;;;;;;;5077261;28;20184;-80
2021/07/17 13:12:27;;;;;;;2.53;2.00;;;;;;;;;;5059261;28;20181;-81
2021/07/17 13:14:54;;;;;;;2.43;2.00;;;;;;;;;;5060451;28;20186;-80
2021/07/17 13:17:21;;;;;;;2.63;1.97;;;;;;;;;;5059350;28;20284;-81
2021/07/17 13:20:00;;;;;;;3.77;2.47;;;;;;;;;;5058610;28;20176;-80
2021/07/17 13:22:34;;;;;;;4.60;2.90;;;;;;;;;;5058896;28;20210;-80
2021/07/17 13:25:09;;;;;;;4.60;2.13;;;;;;;;;;5075128;28;20152;-80
2021/07/17 13:27:35;;;;;;;2.67;1.90;;;;;;;;;;5074553;28;20179;-80
2021/07/17 13:30:01;;;;;;;3.47;2.20;;;;;;;;;;5076040;28;20629;-83
2021/07/17 13:32:28;;;;;;;2.37;2.03;;;;;;;;;;5074557;28;20570;-82
2021/07/17 13:34:56;;;;;;;4.10;2.30;;;;;;;;;;5055541;28;20179;-82
2021/07/17 13:37:22;;;;;;;2.90;2.13;;;;;;;;;;5055157;28;20183;-84
2021/07/17 13:39:55;;;;;;;3.27;2.47;;;;;;;;;;5055172;28;20173;-83
2021/07/17 13:42:23;;;;;;;5.67;2.20;;;;;;;;;;5054887;28;20207;-83
2021/07/17 13:44:49;;;;;;;5.20;2.50;;;;;;;;;;5054821;28;20195;-83
2021/07/17 13:47:17;;;;;;;3.83;2.10;;;;;;;;;;5072839;28;20175;-83
2021/07/17 13:49:44;;;;;;;5.10;2.00;;;;;;;;;;5055043;28;20183;-83
2021/07/17 13:52:29;;;;;;;3.90;2.60;;;;;;;;;;5054623;28;20572;-83
2021/07/17 13:54:55;;;;;;;3.03;2.00;;;;;;;;;;5054554;28;20226;-83
2021/07/17 13:57:21;;;;;;;3.43;2.40;;;;;;;;;;5054881;28;20184;-83
2021/07/17 14:00:01;;;;;;;2.30;2.10;;;;;;;;;;5055542;28;20183;-83
2021/07/17 14:02:28;;;;;;;3.33;2.30;;;;;;;;;;5053235;28;20450;-83
2021/07/17 14:04:54;;;;;;;5.33;2.43;;;;;;;;;;5072732;28;20249;-83
2021/07/17 14:07:20;;;;;;;3.97;2.50;;;;;;;;;;5054321;28;20227;-83
2021/07/17 14:09:47;;;;;;;3.20;2.20;;;;;;;;;;5072360;28;20666;-84
2021/07/17 14:12:13;;;;;;;5.20;2.03;;;;;;;;;;5054634;28;20272;-84
2021/07/17 14:14:39;;;;;;;3.10;2.80;;;;;;;;;;5054657;28;20661;-83
2021/07/17 14:17:05;;;;;;;4.57;2.53;;;;;;;;;;5054923;28;20187;-84
2021/07/17 14:19:31;;;;;;;4.17;2.17;;;;;;;;;;5054814;28;20182;-84
2021/07/17 14:21:57;;;;;;;4.53;2.83;;;;;;;;;;5072726;28;20194;-84
2021/07/17 14:24:23;;;;;;;4.37;1.87;;;;;;;;;;5055128;28;20176;-84
2021/07/17 14:26:49;;;;;;;2.60;2.10;;;;;;;;;;5055200;28;20182;-84
2021/07/17 14:29:15;;;;;;;2.00;1.80;;;;;;;;;;5054915;28;20172;-85
2021/07/17 14:31:41;;;;;;;3.33;2.03;;;;;;;;;;5054963;28;20183;-85
2021/07/17 14:34:07;;;;;;;1.90;1.80;;;;;;;;;;5055017;28;20240;-84
2021/07/17 14:36:33;;;;;;;2.33;2.13;;;;;;;;;;5053988;28;20178;-84
2021/07/17 14:38:59;;;;;;;3.17;2.33;;;;;;;;;;5054820;28;20217;-84